createdAt,value
2023-05-24T00:00:53.796Z,9.86
2023-05-24T00:01:53.800Z,9.84
2023-05-24T00:02:53.892Z,9.86
2023-05-24T00:03:54.567Z,9.88
2023-05-24T00:04:53.904Z,9.75
2023-05-24T00:05:53.918Z,9.7
2023-05-24T00:06:53.862Z,9.64
2023-05-24T00:07:53.880Z,9.59
2023-05-24T00:08:54.510Z,9.54
2023-05-24T00:09:53.945Z,9.54
2023-05-24T00:10:53.977Z,9.5
2023-05-24T00:11:53.926Z,9.48
2023-05-24T00:12:53.944Z,9.44
2023-05-24T00:13:54.277Z,9.39
2023-05-24T00:14:54.231Z,9.43
2023-05-24T00:15:54.200Z,9.43
2023-05-24T00:16:54.117Z,9.47
2023-05-24T00:17:54.061Z,9.44
2023-05-24T00:18:54.045Z,9.38
2023-05-24T00:19:54.160Z,9.37
2023-05-24T00:20:54.090Z,9.38
2023-05-24T00:21:54.041Z,9.41
2023-05-24T00:22:54.589Z,9.55
2023-05-24T00:23:54.579Z,9.65
2023-05-24T00:24:54.577Z,9.7
2023-05-24T00:25:54.602Z,9.65
2023-05-24T00:26:54.620Z,9.55
2023-05-24T00:27:54.648Z,9.55
2023-05-24T00:28:54.658Z,9.46
2023-05-24T00:29:54.873Z,9.44
2023-05-24T00:30:54.676Z,9.42
2023-05-24T00:31:54.764Z,9.44
2023-05-24T00:32:54.718Z,9.43
2023-05-24T00:33:54.731Z,9.47
2023-05-24T00:34:54.715Z,9.48
2023-05-24T00:35:55.044Z,9.42
2023-05-24T00:36:54.750Z,9.43
2023-05-24T00:37:54.758Z,9.43
2023-05-24T00:38:54.791Z,9.51
2023-05-24T00:39:54.814Z,9.44
2023-05-24T00:40:55.248Z,9.51
2023-05-24T00:41:54.844Z,9.54
2023-05-24T00:42:54.832Z,9.52
2023-05-24T00:43:54.866Z,9.47
2023-05-24T00:44:54.868Z,9.42
2023-05-24T00:46:58.476Z,9.24
2023-05-24T00:47:59.200Z,9.24
2023-05-24T00:48:59.011Z,9.31
2023-05-24T00:49:58.864Z,9.28
2023-05-24T00:50:58.660Z,9.27
2023-05-24T00:51:58.967Z,9.22
2023-05-24T00:53:00.832Z,9.2
2023-05-24T00:53:58.766Z,9.23
2023-05-24T00:54:58.774Z,9.17
2023-05-24T00:55:58.743Z,9.15
2023-05-24T00:56:58.951Z,9.15
2023-05-24T00:57:58.918Z,9.17
2023-05-24T00:58:58.779Z,9.22
2023-05-24T00:59:59.459Z,9.23
2023-05-24T01:00:59.662Z,9.26
2023-05-24T01:01:58.880Z,9.27
2023-05-24T01:02:59.006Z,9.48
2023-05-24T01:03:58.838Z,9.59
2023-05-24T01:04:58.784Z,9.62
2023-05-24T01:06:06.227Z,9.41
2023-05-24T01:07:06.207Z,9.64
2023-05-24T01:16:22.449Z,8.89
2023-05-24T01:18:26.290Z,8.83
2023-05-24T01:20:29.856Z,8.76
2023-05-24T01:24:43.955Z,9.04
2023-05-24T01:27:50.870Z,8.91
2023-05-24T01:28:50.869Z,8.9
2023-05-24T01:29:50.641Z,8.9
2023-05-24T01:30:50.872Z,8.93
2023-05-24T01:31:50.581Z,8.96
2023-05-24T01:32:50.946Z,8.89
2023-05-24T01:33:50.509Z,8.91
2023-05-24T01:34:50.562Z,8.94
2023-05-24T01:35:50.539Z,8.95
2023-05-24T01:36:50.591Z,8.99
2023-05-24T01:37:50.547Z,9.04
2023-05-24T01:38:51.546Z,9.08
2023-05-24T01:39:50.826Z,9.08
2023-05-24T01:40:52.862Z,9.07
2023-05-24T01:41:54.087Z,9.08
2023-05-24T01:51:09.546Z,9.36
2023-05-24T01:52:12.882Z,9.19
2023-05-24T01:53:12.962Z,9.17
2023-05-24T01:54:10.076Z,9.18
2023-05-24T01:55:09.467Z,9.19
2023-05-24T01:56:11.150Z,9.07
2023-05-24T01:57:10.268Z,9.02
2023-05-24T01:58:09.875Z,9
2023-05-24T01:59:09.680Z,8.97
2023-05-24T02:00:10.241Z,8.96
2023-05-24T02:01:09.914Z,8.99
2023-05-24T02:02:10.184Z,9.01
2023-05-24T02:03:09.965Z,9.03
2023-05-24T02:04:09.410Z,9.12
2023-05-24T02:05:09.940Z,9.11
2023-05-24T02:06:09.414Z,9.1
2023-05-24T02:07:09.435Z,8.99
2023-05-24T02:08:09.718Z,9
2023-05-24T02:09:09.439Z,9.03
2023-05-24T02:10:09.874Z,8.98
2023-05-24T02:11:09.536Z,8.89
2023-05-24T02:12:10.287Z,8.85
2023-05-24T02:13:09.534Z,8.85
2023-05-24T02:14:09.541Z,8.86
2023-05-24T02:15:10.319Z,8.93
2023-05-24T02:16:09.664Z,8.84
2023-05-24T02:17:09.821Z,8.85
2023-05-24T02:18:09.650Z,9.04
2023-05-24T02:19:09.807Z,9.06
2023-05-24T02:20:10.301Z,9.09
2023-05-24T02:21:09.637Z,9.06
2023-05-24T02:22:09.633Z,9.02
2023-05-24T02:23:09.861Z,9
2023-05-24T02:24:09.733Z,9.12
2023-05-24T02:25:09.708Z,9.18
2023-05-24T02:26:09.738Z,9.21
2023-05-24T02:27:09.720Z,9.29
2023-05-24T02:28:09.750Z,9.3
2023-05-24T02:29:09.814Z,9.35
2023-05-24T02:30:10.293Z,9.34
2023-05-24T02:31:10.245Z,9.34
2023-05-24T02:32:09.794Z,9.23
2023-05-24T02:33:10.507Z,9.28
2023-05-24T02:34:10.077Z,9.24
2023-05-24T02:35:09.880Z,9.27
2023-05-24T02:36:09.888Z,9.15
2023-05-24T02:37:10.261Z,9.13
2023-05-24T02:38:10.605Z,9.14
2023-05-24T02:39:10.638Z,9.14
2023-05-24T02:40:11.113Z,9.21
2023-05-24T02:41:10.643Z,9.25
2023-05-24T02:42:10.643Z,9.27
2023-05-24T02:43:10.652Z,9.26
2023-05-24T02:44:10.735Z,9.47
2023-05-24T02:45:11.108Z,9.62
2023-05-24T02:46:10.794Z,9.69
2023-05-24T02:47:10.779Z,9.77
2023-05-24T02:48:10.740Z,9.83
2023-05-24T02:49:10.787Z,9.88
2023-05-24T02:50:10.860Z,9.9
2023-05-24T02:51:10.781Z,9.9
2023-05-24T02:52:10.975Z,9.9
2023-05-24T02:53:10.820Z,9.98
2023-05-24T02:54:10.909Z,10.03
2023-05-24T02:55:11.331Z,10.01
2023-05-24T02:56:11.347Z,10.01
2023-05-24T02:57:11.373Z,10.04
2023-05-24T02:58:11.374Z,10.09
2023-05-24T02:59:11.418Z,10.18
2023-05-24T03:00:11.943Z,10.17
2023-05-24T03:01:11.598Z,10.24
2023-05-24T03:02:11.442Z,10.34
2023-05-24T03:03:11.536Z,10.37
2023-05-24T03:04:11.581Z,10.37
2023-05-24T03:05:11.505Z,10.43
2023-05-24T03:06:11.887Z,10.47
2023-05-24T03:07:11.548Z,10.45
2023-05-24T03:08:11.613Z,10.5
2023-05-24T03:09:11.588Z,10.57
2023-05-24T03:10:13.195Z,10.6
2023-05-24T03:11:11.622Z,10.64
2023-05-24T03:12:11.616Z,10.68
2023-05-24T03:13:11.626Z,10.71
2023-05-24T03:14:11.649Z,10.71
2023-05-24T03:15:11.730Z,10.73
2023-05-24T03:16:11.764Z,10.72
2023-05-24T03:17:11.678Z,10.74
2023-05-24T03:18:11.679Z,10.75
2023-05-24T03:19:11.744Z,10.77
2023-05-24T03:20:12.851Z,10.79
2023-05-24T03:21:11.993Z,10.83
2023-05-24T03:22:11.765Z,10.85
2023-05-24T03:23:11.782Z,10.88
2023-05-24T03:24:11.799Z,10.96
2023-05-24T03:25:11.814Z,10.99
2023-05-24T03:26:11.820Z,11.06
2023-05-24T03:27:11.850Z,11.08
2023-05-24T03:28:11.837Z,11.13
2023-05-24T03:29:12.043Z,11.19
2023-05-24T03:30:12.507Z,11.21
2023-05-24T03:31:12.204Z,11.23
2023-05-24T03:32:11.889Z,11.22
2023-05-24T03:33:11.898Z,11.24
2023-05-24T03:34:11.955Z,11.26
2023-05-24T03:35:12.004Z,11.3
2023-05-24T03:36:11.983Z,11.35
2023-05-24T03:37:11.986Z,11.38
2023-05-24T03:38:11.994Z,11.43
2023-05-24T03:39:12.035Z,11.52
2023-05-24T03:40:12.227Z,11.59
2023-05-24T03:41:12.046Z,11.59
2023-05-24T03:42:12.047Z,11.59
2023-05-24T03:43:12.120Z,11.64
2023-05-24T03:44:12.540Z,11.69
2023-05-24T03:45:12.096Z,11.75
2023-05-24T03:46:12.218Z,11.74
2023-05-24T03:47:12.353Z,11.78
2023-05-24T03:48:12.769Z,11.85
2023-05-24T03:49:12.187Z,11.92
2023-05-24T03:50:12.196Z,12
2023-05-24T03:51:12.415Z,11.99
2023-05-24T03:52:12.378Z,12
2023-05-24T03:53:12.259Z,12.01
2023-05-24T03:54:12.252Z,12.09
2023-05-24T03:55:12.295Z,12.16
2023-05-24T03:56:12.280Z,12.18
2023-05-24T03:57:12.346Z,12.21
2023-05-24T03:58:12.529Z,12.22
2023-05-24T03:59:12.338Z,12.31
2023-05-24T04:00:12.854Z,12.36
2023-05-24T04:01:21.987Z,12.35
2023-05-24T04:02:16.314Z,12.5
2023-05-24T04:03:16.340Z,12.52
2023-05-24T04:04:16.441Z,12.52
2023-05-24T04:05:16.385Z,12.6
2023-05-24T04:06:17.666Z,12.6
2023-05-24T04:07:16.629Z,12.69
2023-05-24T04:08:16.590Z,12.69
2023-05-24T04:09:16.542Z,12.76
2023-05-24T04:10:16.453Z,12.77
2023-05-24T04:11:16.430Z,12.79
2023-05-24T04:12:16.497Z,12.84
2023-05-24T04:13:16.503Z,12.87
2023-05-24T04:14:16.662Z,12.93
2023-05-24T04:15:16.942Z,13.04
2023-05-24T04:16:16.893Z,13.05
2023-05-24T04:17:16.576Z,13.11
2023-05-24T04:18:16.855Z,13.18
2023-05-24T04:19:16.563Z,13.22
2023-05-24T04:20:16.651Z,13.31
2023-05-24T04:21:16.643Z,13.31
2023-05-24T04:22:17.000Z,13.28
2023-05-24T04:23:16.651Z,13.34
2023-05-24T04:24:16.732Z,13.39
2023-05-24T04:25:16.716Z,13.4
2023-05-24T04:26:16.671Z,13.48
2023-05-24T04:27:16.828Z,13.6
2023-05-24T04:28:16.679Z,13.64
2023-05-24T04:29:16.688Z,13.57
2023-05-24T04:30:16.980Z,13.6
2023-05-24T04:31:17.033Z,13.52
2023-05-24T04:32:16.754Z,13.62
2023-05-24T04:33:16.783Z,13.61
2023-05-24T04:34:16.809Z,13.66
2023-05-24T04:35:16.880Z,13.77
2023-05-24T04:36:16.878Z,13.98
2023-05-24T04:37:16.851Z,14.04
2023-05-24T04:38:16.905Z,14.06
2023-05-24T04:39:16.879Z,14.16
2023-05-24T04:40:16.891Z,14.18
2023-05-24T04:41:16.925Z,14.18
2023-05-24T04:42:16.871Z,14.28
2023-05-24T04:43:16.919Z,14.32
2023-05-24T04:44:17.518Z,14.4
2023-05-24T04:45:17.059Z,14.49
2023-05-24T04:46:17.196Z,14.58
2023-05-24T04:47:16.989Z,14.63
2023-05-24T04:48:17.180Z,14.74
2023-05-24T04:49:17.033Z,14.83
2023-05-24T04:50:17.112Z,14.88
2023-05-24T04:51:17.069Z,14.97
2023-05-24T04:52:17.360Z,14.99
2023-05-24T04:53:17.222Z,15.11
2023-05-24T04:54:17.151Z,15.13
2023-05-24T04:55:17.245Z,15.11
2023-05-24T04:56:17.379Z,15.16
2023-05-24T04:57:17.549Z,15.35
2023-05-24T04:58:17.208Z,15.36
2023-05-24T04:59:17.346Z,15.44
2023-05-24T05:00:17.706Z,15.54
2023-05-24T05:01:17.316Z,15.62
2023-05-24T05:02:17.287Z,15.63
2023-05-24T05:03:17.579Z,15.59
2023-05-24T05:04:17.978Z,15.59
2023-05-24T05:05:18.424Z,15.57
2023-05-24T05:06:18.014Z,15.62
2023-05-24T05:07:18.048Z,15.61
2023-05-24T05:08:18.179Z,15.76
2023-05-24T05:09:18.270Z,15.81
2023-05-24T05:10:18.072Z,16
2023-05-24T05:11:18.432Z,15.94
2023-05-24T05:12:18.044Z,16.01
2023-05-24T05:13:18.081Z,16.09
2023-05-24T05:14:18.150Z,16.02
2023-05-24T05:15:18.408Z,16.04
2023-05-24T05:16:18.242Z,16.1
2023-05-24T05:17:18.260Z,16.15
2023-05-24T05:18:18.344Z,16.21
2023-05-24T05:19:18.292Z,16.28
2023-05-24T05:20:18.880Z,16.33
2023-05-24T05:21:18.195Z,16.51
2023-05-24T05:22:18.269Z,16.42
2023-05-24T05:23:18.286Z,16.49
2023-05-24T05:24:18.563Z,16.51
2023-05-24T05:25:18.468Z,16.52
2023-05-24T05:26:18.338Z,16.57
2023-05-24T05:27:19.286Z,16.57
2023-05-24T05:28:18.518Z,16.71
2023-05-24T05:29:18.349Z,16.84
2023-05-24T05:30:18.465Z,16.75
2023-05-24T05:31:18.475Z,16.76
2023-05-24T05:32:18.674Z,16.75
2023-05-24T05:33:19.332Z,16.79
2023-05-24T05:34:19.231Z,16.79
2023-05-24T05:35:19.374Z,16.86
2023-05-24T05:36:19.446Z,16.87
2023-05-24T05:37:19.278Z,16.96
2023-05-24T05:38:19.312Z,16.94
2023-05-24T05:39:19.349Z,16.95
2023-05-24T05:40:19.576Z,16.86
2023-05-24T05:41:19.394Z,17.17
2023-05-24T05:42:19.357Z,17.32
2023-05-24T05:43:19.374Z,17.39
2023-05-24T05:44:19.813Z,17.35
2023-05-24T05:45:19.684Z,17.24
2023-05-24T05:46:19.507Z,17.26
2023-05-24T05:47:19.464Z,17.23
2023-05-24T05:48:19.465Z,17.38
2023-05-24T05:49:20.063Z,17.48
2023-05-24T05:50:19.747Z,17.42
2023-05-24T05:51:19.550Z,17.56
2023-05-24T05:52:19.576Z,17.77
2023-05-24T05:53:19.566Z,17.82
2023-05-24T05:54:19.659Z,17.83
2023-05-24T05:55:19.894Z,17.79
2023-05-24T05:56:19.668Z,17.77
2023-05-24T05:57:19.661Z,17.78
2023-05-24T05:58:19.642Z,17.75
2023-05-24T05:59:19.916Z,17.7
2023-05-24T06:00:20.676Z,17.66
2023-05-24T06:01:20.313Z,17.83
2023-05-24T06:02:19.834Z,17.94
2023-05-24T06:03:19.976Z,17.83
2023-05-24T06:04:19.774Z,17.77
2023-05-24T06:05:20.180Z,17.81
2023-05-24T06:06:19.817Z,17.81
2023-05-24T06:07:20.054Z,17.95
2023-05-24T06:08:19.814Z,17.97
2023-05-24T06:09:19.850Z,18.03
2023-05-24T06:10:19.940Z,18.07
2023-05-24T06:11:20.213Z,18.15
2023-05-24T06:12:20.182Z,18.07
2023-05-24T06:13:19.948Z,18.19
2023-05-24T06:14:20.027Z,18.2
2023-05-24T06:15:20.033Z,18.31
2023-05-24T06:16:20.477Z,18.22
2023-05-24T06:17:19.983Z,18.07
2023-05-24T06:18:19.961Z,18.2
2023-05-24T06:19:20.407Z,18.19
2023-05-24T06:20:20.245Z,18.22
2023-05-24T06:21:20.280Z,18.39
2023-05-24T06:22:20.392Z,18.5
2023-05-24T06:23:20.068Z,18.5
2023-05-24T06:24:20.108Z,18.54
2023-05-24T06:25:25.523Z,18.6
2023-05-24T06:26:22.191Z,18.8
2023-05-24T06:27:22.245Z,19.17
2023-05-24T06:28:22.266Z,19.23
2023-05-24T06:29:22.562Z,19.14
2023-05-24T06:30:22.310Z,18.9
2023-05-24T06:31:22.761Z,18.76
2023-05-24T06:32:22.713Z,18.79
2023-05-24T06:33:22.362Z,18.91
2023-05-24T06:34:22.347Z,19.04
2023-05-24T06:35:22.380Z,18.91
2023-05-24T06:36:22.379Z,18.93
2023-05-24T06:37:22.469Z,18.99
2023-05-24T06:38:22.426Z,19.15
2023-05-24T06:39:22.413Z,19.23
2023-05-24T06:40:22.543Z,19.29
2023-05-24T06:41:22.534Z,19.54
2023-05-24T06:42:23.140Z,19.56
2023-05-24T06:43:22.514Z,19.39
2023-05-24T06:44:25.106Z,19.4
2023-05-24T06:45:22.568Z,19.5
2023-05-24T06:46:22.618Z,19.54
2023-05-24T06:47:22.764Z,19.55
2023-05-24T06:48:22.813Z,19.72
2023-05-24T06:49:22.660Z,19.71
2023-05-24T06:50:22.666Z,19.78
2023-05-24T06:51:22.840Z,19.73
2023-05-24T06:52:22.887Z,19.58
2023-05-24T06:53:22.647Z,19.47
2023-05-24T06:54:22.913Z,19.49
2023-05-24T06:55:22.864Z,19.37
2023-05-24T06:56:23.002Z,19.37
2023-05-24T06:57:22.708Z,19.43
2023-05-24T06:58:22.790Z,19.47
2023-05-24T06:59:22.793Z,19.43
2023-05-24T07:00:23.181Z,19.52
2023-05-24T07:01:22.937Z,19.56
2023-05-24T07:02:22.839Z,19.57
2023-05-24T07:03:23.035Z,19.53
2023-05-24T07:04:23.913Z,19.52
2023-05-24T07:05:22.800Z,19.42
2023-05-24T07:06:22.962Z,19.42
2023-05-24T07:07:22.918Z,19.49
2023-05-24T07:08:22.909Z,19.74
2023-05-24T07:09:22.966Z,19.95
2023-05-24T07:10:23.086Z,19.84
2023-05-24T07:11:23.371Z,19.57
2023-05-24T07:12:23.212Z,19.52
2023-05-24T07:13:23.012Z,19.82
2023-05-24T07:14:23.729Z,19.8
2023-05-24T07:15:23.467Z,20
2023-05-24T07:16:23.133Z,20.2
2023-05-24T07:17:23.248Z,20.2
2023-05-24T07:18:23.398Z,20.14
2023-05-24T07:19:23.199Z,20.23
2023-05-24T07:20:23.164Z,20.03
2023-05-24T07:21:23.146Z,20.15
2023-05-24T07:22:23.184Z,20.24
2023-05-24T07:23:23.204Z,19.83
2023-05-24T07:24:23.205Z,19.9
2023-05-24T07:25:23.192Z,19.75
2023-05-24T07:26:23.203Z,19.8
2023-05-24T07:27:23.424Z,20.08
2023-05-24T07:28:23.217Z,20.1
2023-05-24T07:29:23.798Z,20.16
2023-05-24T07:30:31.628Z,20.43
2023-05-24T07:31:24.502Z,20.41
2023-05-24T07:32:24.808Z,20.38
2023-05-24T07:33:24.398Z,20.16
2023-05-24T07:34:24.254Z,20.13
2023-05-24T07:35:24.262Z,20.44
2023-05-24T07:36:24.257Z,20.88
2023-05-24T07:37:24.376Z,20.61
2023-05-24T07:38:24.329Z,20.39
2023-05-24T07:39:25.017Z,20.51
2023-05-24T07:40:24.361Z,20.37
2023-05-24T07:41:25.832Z,20.64
2023-05-24T07:42:24.564Z,20.79
2023-05-24T07:43:24.358Z,20.75
2023-05-24T07:44:24.419Z,20.5
2023-05-24T07:45:24.795Z,20.84
2023-05-24T07:46:24.408Z,20.95
2023-05-24T07:47:24.548Z,20.9
2023-05-24T07:48:24.484Z,20.87
2023-05-24T07:49:24.823Z,20.7
2023-05-24T07:50:24.534Z,20.79
2023-05-24T07:51:24.583Z,20.64
2023-05-24T07:52:24.701Z,20.41
2023-05-24T07:53:24.534Z,20.45
2023-05-24T07:54:24.528Z,20.74
2023-05-24T07:55:25.137Z,20.67
2023-05-24T07:56:24.629Z,20.39
2023-05-24T07:57:24.572Z,20.43
2023-05-24T07:58:24.613Z,20.76
2023-05-24T07:59:24.667Z,20.96
2023-05-24T08:00:29.208Z,20.9
2023-05-24T08:01:25.976Z,21
2023-05-24T08:02:26.316Z,21.24
2023-05-24T08:03:26.228Z,21.27
2023-05-24T08:04:26.095Z,20.96
2023-05-24T08:05:25.997Z,20.88
2023-05-24T08:06:26.219Z,21.22
2023-05-24T08:07:26.916Z,21.3
2023-05-24T08:08:26.024Z,21.26
2023-05-24T08:09:26.058Z,21.29
2023-05-24T08:10:26.087Z,20.83
2023-05-24T08:11:26.113Z,20.48
2023-05-24T08:12:26.356Z,20.27
2023-05-24T08:13:26.367Z,20.01
2023-05-24T08:14:26.093Z,19.88
2023-05-24T08:15:26.283Z,19.98
2023-05-24T08:16:26.249Z,20.19
2023-05-24T08:17:27.038Z,20.17
2023-05-24T08:18:26.171Z,20.05
2023-05-24T08:19:26.781Z,19.94
2023-05-24T08:20:26.497Z,19.8
2023-05-24T08:21:26.223Z,19.78
2023-05-24T08:22:26.244Z,19.7
2023-05-24T08:23:26.394Z,19.69
2023-05-24T08:24:26.391Z,19.85
2023-05-24T08:25:26.667Z,19.99
2023-05-24T08:26:26.267Z,20.02
2023-05-24T08:27:26.633Z,19.98
2023-05-24T08:28:27.496Z,19.81
2023-05-24T08:29:26.814Z,19.92
2023-05-24T08:30:27.005Z,20.25
2023-05-24T08:31:27.028Z,20.49
2023-05-24T08:32:27.217Z,20.65
2023-05-24T08:33:26.842Z,20.8
2023-05-24T08:34:27.053Z,21.26
2023-05-24T08:35:26.944Z,21.09
2023-05-24T08:36:26.930Z,21.11
2023-05-24T08:37:27.135Z,21.06
2023-05-24T08:38:27.309Z,21
2023-05-24T08:39:27.007Z,20.93
2023-05-24T08:40:27.160Z,20.94
2023-05-24T08:41:28.385Z,20.66
2023-05-24T08:42:28.495Z,20.56
2023-05-24T08:43:30.727Z,20.55
2023-05-24T08:44:30.657Z,20.52
2023-05-24T08:45:30.473Z,20.7
2023-05-24T08:46:29.907Z,20.85
2023-05-24T08:47:30.620Z,20.88
2023-05-24T08:48:29.690Z,21.19
2023-05-24T08:49:32.143Z,21.25
2023-05-24T08:50:31.730Z,21.39
2023-05-24T08:51:30.991Z,21.05
2023-05-24T08:52:31.212Z,20.85
2023-05-24T08:53:30.693Z,21.12
2023-05-24T08:54:30.693Z,21.53
2023-05-24T08:55:33.605Z,22.05
2023-05-24T08:56:30.788Z,22.31
2023-05-24T08:57:33.160Z,22.12
2023-05-24T08:58:30.647Z,21.63
2023-05-24T08:59:30.744Z,21.41
2023-05-24T09:00:30.465Z,21.2
2023-05-24T09:01:32.302Z,21.43
2023-05-24T09:02:31.655Z,21.2
2023-05-24T09:03:31.531Z,21.05
2023-05-24T09:04:30.745Z,21.3
2023-05-24T09:05:30.837Z,21.2
2023-05-24T09:06:31.521Z,20.97
2023-05-24T09:07:33.133Z,20.75
2023-05-24T09:08:31.144Z,20.6
2023-05-24T09:09:32.370Z,20.54
2023-05-24T09:10:44.934Z,20.64
2023-05-24T09:11:35.142Z,20.76
2023-05-24T09:12:38.281Z,20.97
2023-05-24T09:13:35.765Z,21.36
2023-05-24T09:14:35.154Z,21.44
2023-05-24T09:15:35.467Z,21.76
2023-05-24T09:16:35.431Z,21.6
2023-05-24T09:17:35.893Z,21.18
2023-05-24T09:18:35.587Z,21.25
2023-05-24T09:19:35.658Z,21.27
2023-05-24T09:20:35.269Z,21.17
2023-05-24T09:21:35.231Z,21.1
2023-05-24T09:22:38.759Z,21.03
2023-05-24T09:23:37.247Z,20.98
2023-05-24T09:26:39.283Z,21.22
2023-05-24T09:27:39.422Z,21.48
2023-05-24T09:28:39.305Z,21.71
2023-05-24T09:29:39.296Z,21.93
2023-05-24T09:30:39.282Z,21.55
2023-05-24T09:31:39.819Z,21.71
2023-05-24T09:32:39.563Z,21.68
2023-05-24T09:33:39.571Z,21.48
2023-05-24T09:34:39.991Z,21.76
2023-05-24T09:35:41.981Z,21.82
2023-05-24T09:36:41.147Z,21.69
2023-05-24T09:37:39.412Z,21.48
2023-05-24T09:38:39.594Z,21.81
2023-05-24T09:39:40.254Z,22.1
2023-05-24T09:40:39.429Z,22.31
2023-05-24T09:41:43.367Z,22.05
2023-05-24T09:42:39.760Z,22.61
2023-05-24T09:44:40.321Z,22.52
2023-05-24T09:45:47.418Z,22.91
2023-05-24T09:46:44.195Z,22.84
2023-05-24T09:47:44.297Z,22.68
2023-05-24T09:49:48.530Z,22.79
2023-05-24T09:51:46.209Z,22.77
2023-05-24T09:52:46.264Z,22.95
2023-05-24T09:53:46.462Z,22.91
2023-05-24T09:54:46.476Z,23.25
2023-05-24T09:55:46.305Z,22.95
2023-05-24T09:56:46.501Z,22.83
2023-05-24T09:58:48.588Z,23.16
2023-05-24T09:59:51.179Z,23.42
2023-05-24T10:00:48.649Z,23.39
2023-05-24T10:01:48.249Z,23.25
2023-05-24T10:02:59.888Z,23.22
2023-05-24T10:03:54.611Z,23.16
2023-05-24T10:04:57.365Z,23.25
2023-05-24T10:05:55.004Z,23.03
2023-05-24T10:06:54.569Z,22.92
2023-05-24T10:07:55.330Z,23.16
2023-05-24T10:08:55.172Z,23.05
2023-05-24T10:09:54.688Z,22.86
2023-05-24T10:10:55.204Z,22.73
2023-05-24T10:11:54.582Z,22.86
2023-05-24T10:12:55.736Z,22.81
2023-05-24T10:13:55.049Z,22.52
2023-05-24T10:14:54.562Z,22.76
2023-05-24T10:15:54.675Z,22.47
2023-05-24T10:16:54.525Z,22.05
2023-05-24T10:17:55.020Z,21.62
2023-05-24T10:18:54.508Z,21.48
2023-05-24T10:19:54.530Z,21.47
2023-05-24T10:20:55.584Z,21.54
2023-05-24T10:21:56.142Z,21.69
2023-05-24T10:23:00.626Z,21.83
2023-05-24T10:23:59.191Z,22.21
2023-05-24T10:24:57.747Z,22.31
2023-05-24T10:26:04.658Z,22.5
2023-05-24T10:27:04.211Z,22.35
2023-05-24T10:28:02.982Z,22.53
2023-05-24T10:29:04.683Z,22.86
2023-05-24T10:30:11.436Z,22.58
2023-05-24T10:31:07.823Z,22.74
2023-05-24T10:32:05.461Z,22.53
2023-05-24T10:33:06.268Z,22.79
2023-05-24T10:34:08.348Z,22.75
2023-05-24T10:35:06.476Z,22.57
2023-05-24T10:36:09.331Z,22.51
2023-05-24T10:37:06.758Z,22.58
2023-05-24T10:38:07.421Z,22.54
2023-05-24T10:39:08.335Z,22.62
2023-05-24T10:40:07.083Z,22.54
2023-05-24T10:41:06.892Z,22.04
2023-05-24T10:42:09.559Z,21.7
2023-05-24T10:43:07.730Z,21.52
2023-05-24T10:44:10.560Z,21.44
2023-05-24T10:46:11.051Z,21.57
2023-05-24T10:47:11.934Z,21.62
2023-05-24T10:49:15.814Z,21.64
2023-05-24T10:50:18.792Z,21.84
2023-05-24T10:52:17.533Z,22.19
2023-05-24T10:53:22.111Z,22.33
2023-05-24T10:54:19.299Z,22.35
2023-05-24T10:55:19.569Z,22.56
2023-05-24T10:56:21.488Z,22.89
2023-05-24T10:57:22.766Z,22.81
2023-05-24T10:58:19.688Z,22.71
2023-05-24T11:01:33.017Z,22.57
2023-05-24T11:02:27.667Z,22.5
2023-05-24T11:03:25.142Z,22.27
2023-05-24T11:04:25.309Z,21.94
2023-05-24T11:05:24.984Z,21.58
2023-05-24T11:07:26.029Z,21.8
2023-05-24T11:09:29.235Z,21.47
2023-05-24T11:10:31.996Z,21.42
2023-05-24T11:11:31.335Z,21.42
2023-05-24T11:12:30.717Z,21.33
2023-05-24T11:13:30.109Z,21.33
2023-05-24T11:14:30.264Z,21.42
2023-05-24T11:15:29.737Z,21.35
2023-05-24T11:16:33.237Z,21.35
2023-05-24T11:17:29.664Z,21.55
2023-05-24T11:18:29.605Z,21.56
2023-05-24T11:19:33.974Z,21.58
2023-05-24T11:20:30.518Z,21.78
2023-05-24T11:21:31.317Z,22.07
2023-05-24T11:22:30.431Z,22.28
2023-05-24T11:23:30.944Z,22.18
2023-05-24T11:24:30.531Z,22.65
2023-05-24T11:25:30.309Z,23.25
2023-05-24T11:26:30.529Z,23.44
2023-05-24T11:27:31.176Z,23.26
2023-05-24T11:28:30.639Z,23.34
2023-05-24T11:29:30.359Z,23.82
2023-05-24T11:30:30.792Z,23.59
2023-05-24T11:31:30.422Z,23.81
2023-05-24T11:32:30.511Z,23.77
2023-05-24T11:33:30.414Z,23.5
2023-05-24T11:34:30.774Z,23.46
2023-05-24T11:35:30.464Z,23.92
2023-05-24T11:36:30.919Z,24.04
2023-05-24T11:37:45.108Z,24.16
2023-05-24T11:38:33.996Z,24.34
2023-05-24T11:39:33.309Z,24.2
2023-05-24T11:40:32.613Z,23.69
2023-05-24T11:41:35.038Z,23.73
2023-05-24T11:42:33.279Z,23.37
2023-05-24T11:43:32.651Z,23.35
2023-05-24T11:44:33.243Z,24.12
2023-05-24T11:45:32.712Z,23.58
2023-05-24T11:46:32.958Z,23.94
2023-05-24T11:47:35.564Z,23.61
2023-05-24T11:48:32.709Z,23.76
2023-05-24T11:49:32.781Z,23.84
2023-05-24T11:50:48.787Z,23.56
2023-05-24T11:51:36.713Z,24.24
2023-05-24T11:52:40.352Z,24.42
2023-05-24T11:53:37.269Z,23.35
2023-05-24T11:54:37.161Z,23.72
2023-05-24T11:55:37.067Z,24.06
2023-05-24T11:56:37.380Z,24.08
2023-05-24T11:57:37.633Z,24.04
2023-05-24T11:58:44.270Z,24.23
2023-05-24T11:59:41.125Z,23.89
2023-05-24T12:00:42.432Z,24.13
2023-05-24T12:01:41.264Z,24.69
2023-05-24T12:02:41.384Z,24.48
2023-05-24T12:03:41.717Z,24.33
2023-05-24T12:04:41.135Z,24.27
2023-05-24T12:05:41.040Z,24.35
2023-05-24T12:06:44.592Z,24.3
2023-05-24T12:07:41.313Z,24.32
2023-05-24T12:08:41.384Z,24.37
2023-05-24T12:09:41.880Z,24.65
2023-05-24T12:10:43.179Z,24.88
2023-05-24T12:11:43.166Z,23.96
2023-05-24T12:12:46.231Z,24.31
2023-05-24T12:13:43.461Z,23.96
2023-05-24T12:14:43.394Z,23.67
2023-05-24T12:15:43.584Z,23.33
2023-05-24T12:16:44.412Z,22.88
2023-05-24T12:17:43.657Z,22.67
2023-05-24T12:18:55.148Z,22.68
2023-05-24T12:19:44.189Z,23.26
2023-05-24T12:20:45.919Z,23.45
2023-05-24T12:21:44.253Z,22.99
2023-05-24T12:23:47.299Z,22.46
2023-05-24T12:24:49.527Z,22.41
2023-05-24T12:25:45.758Z,22.44
2023-05-24T12:26:47.943Z,22.6
2023-05-24T12:27:45.771Z,22.95
2023-05-24T12:28:48.080Z,22.68
2023-05-24T12:29:45.813Z,22.57
2023-05-24T12:30:45.820Z,22.61
2023-05-24T12:31:48.055Z,22.61
2023-05-24T12:32:46.861Z,22.88
2023-05-24T12:33:46.937Z,23.74
2023-05-24T12:34:46.156Z,24.31
2023-05-24T12:35:46.449Z,24.86
2023-05-24T12:36:46.384Z,25.05
2023-05-24T12:37:45.900Z,24.46
2023-05-24T12:38:45.948Z,24.72
2023-05-24T12:39:45.952Z,24.91
2023-05-24T12:40:51.865Z,24.73
2023-05-24T12:41:50.289Z,24.78
2023-05-24T12:42:50.294Z,24.71
2023-05-24T12:43:46.970Z,24.65
2023-05-24T12:44:47.089Z,24.67
2023-05-24T12:45:47.418Z,24.87
2023-05-24T12:46:47.336Z,24.55
2023-05-24T12:47:47.134Z,24.58
2023-05-24T12:48:47.067Z,24.92
2023-05-24T12:49:47.065Z,24.8
2023-05-24T12:50:47.121Z,24.75
2023-05-24T12:51:49.348Z,23.99
2023-05-24T12:52:47.528Z,24.06
2023-05-24T12:53:47.165Z,24.42
2023-05-24T12:54:47.281Z,24.6
2023-05-24T12:55:47.170Z,25.25
2023-05-24T12:56:47.546Z,25.5
2023-05-24T12:57:47.200Z,24.37
2023-05-24T12:58:47.426Z,23.92
2023-05-24T12:59:47.268Z,23.84
2023-05-24T13:00:47.959Z,23.4
2023-05-24T13:01:48.272Z,23.52
2023-05-24T13:02:48.368Z,23.76
2023-05-24T13:03:48.336Z,23.44
2023-05-24T13:04:48.003Z,23.19
2023-05-24T13:05:48.089Z,22.93
2023-05-24T13:06:48.599Z,22.7
2023-05-24T13:07:48.055Z,22.65
2023-05-24T13:08:48.074Z,22.41
2023-05-24T13:09:48.723Z,22.19
2023-05-24T13:10:48.083Z,22.21
2023-05-24T13:11:48.226Z,22.45
2023-05-24T13:12:48.355Z,23.08
2023-05-24T13:13:48.128Z,23.89
2023-05-24T13:14:49.170Z,24.29
2023-05-24T13:15:48.158Z,24.42
2023-05-24T13:16:48.236Z,24.78
2023-05-24T13:17:48.215Z,24.82
2023-05-24T13:18:48.234Z,24.93
2023-05-24T13:19:48.213Z,24.14
2023-05-24T13:20:48.383Z,24
2023-05-24T13:21:48.295Z,24.13
2023-05-24T13:22:48.354Z,24.37
2023-05-24T13:23:48.365Z,24.19
2023-05-24T13:24:48.568Z,24.45
2023-05-24T13:25:48.337Z,24.4
2023-05-24T13:26:48.530Z,24.65
2023-05-24T13:27:48.280Z,24.81
2023-05-24T13:29:08.044Z,24.97
2023-05-24T13:30:00.359Z,25.26
2023-05-24T13:30:52.810Z,24.87
2023-05-24T13:31:52.781Z,25.23
2023-05-24T13:32:54.072Z,25.27
2023-05-24T13:33:52.807Z,25.23
2023-05-24T13:34:52.802Z,24.75
2023-05-24T13:35:53.655Z,25.02
2023-05-24T13:36:53.641Z,25.13
2023-05-24T13:37:52.876Z,25.06
2023-05-24T13:39:05.989Z,25.14
2023-05-24T13:39:54.053Z,25.19
2023-05-24T13:40:54.720Z,24.97
2023-05-24T13:41:54.130Z,24.21